Time;durP1;ratioP1;P1;durP2;ratioP2;P2;SDS_P1;SDS_P2;PMS_P1;PMS_P2;Temp;Humidity;BMP_temperature;BMP_pressure;BME280_temperature;BME280_humidity;BME280_pressure;Samples;Min_cycle;Max_cycle;Signal;HPM_P1;HPM_P2
2022/08/07 00:00:55;;;;;;;7.05;4.85;;;13.40;99.90;;;;;;5038548;28;20485;-68
2022/08/07 00:03:22;;;;;;;8.27;4.75;;;13.40;99.90;;;;;;5042885;28;20045;-69
2022/08/07 00:05:51;;;;;;;6.35;4.60;;;13.30;99.90;;;;;;5041421;28;20052;-69
2022/08/07 00:08:17;;;;;;;6.18;4.53;;;13.30;99.90;;;;;;5038240;28;20052;-68
2022/08/07 00:10:43;;;;;;;7.00;4.72;;;13.30;99.90;;;;;;5042354;28;20091;-68
2022/08/07 00:13:09;;;;;;;6.07;4.70;;;13.30;99.90;;;;;;5042011;28;20688;-69
2022/08/07 00:15:35;;;;;;;7.00;4.65;;;13.30;99.90;;;;;;5041458;28;20048;-69
2022/08/07 00:18:00;;;;;;;6.55;4.60;;;13.20;99.90;;;;;;5040173;28;20499;-69
2022/08/07 00:20:26;;;;;;;7.63;4.53;;;13.20;99.90;;;;;;5041035;28;20443;-69
2022/08/07 00:22:52;;;;;;;6.53;4.72;;;13.20;99.90;;;;;;5042958;28;20113;-69
2022/08/07 00:25:17;;;;;;;6.93;4.53;;;13.10;99.90;;;;;;5040414;28;20045;-69
2022/08/07 00:27:43;;;;;;;6.03;4.70;;;13.10;99.90;;;;;;5042352;28;20037;-69
2022/08/07 00:30:09;;;;;;;6.20;4.38;;;13.10;99.90;;;;;;5041449;28;20049;-68
2022/08/07 00:32:35;;;;;;;7.22;4.90;;;13.10;99.90;;;;;;5039036;28;20080;-69
2022/08/07 00:35:00;;;;;;;6.38;4.55;;;13.10;99.90;;;;;;5039017;28;20606;-69
2022/08/07 00:37:26;;;;;;;6.68;5.18;;;13.00;99.90;;;;;;5041388;28;20033;-69
2022/08/07 00:39:55;;;;;;;7.45;4.75;;;13.00;99.90;;;;;;5040302;28;20059;-68
2022/08/07 00:42:21;;;;;;;8.45;5.03;;;13.00;99.90;;;;;;5043144;28;20104;-68
2022/08/07 00:44:47;;;;;;;6.88;4.97;;;13.00;99.90;;;;;;5040366;28;20120;-68
2022/08/07 00:47:12;;;;;;;;;;;12.90;99.90;;;;;;5040874;28;20157;-69
2022/08/07 00:49:38;;;;;;;7.03;5.28;;;12.90;99.90;;;;;;5042184;28;19928;-68
2022/08/07 00:52:08;;;;;;;7.05;5.00;;;12.80;99.90;;;;;;5041002;28;20545;-68
2022/08/07 00:54:47;;;;;;;6.72;4.88;;;12.70;99.90;;;;;;5041125;28;20464;-68
2022/08/07 00:57:13;;;;;;;6.93;4.53;;;13.10;99.90;;;;;;5038665;28;20140;-69
2022/08/07 00:59:38;;;;;;;8.25;5.20;;;12.70;99.90;;;;;;5041860;28;20041;-68
2022/08/07 01:02:05;;;;;;;;;;;12.60;99.90;;;;;;5038887;28;20509;-69
2022/08/07 01:04:31;;;;;;;6.38;5.07;;;12.60;99.90;;;;;;5041406;28;19928;-69
2022/08/07 01:06:57;;;;;;;7.50;5.38;;;12.60;99.90;;;;;;5041237;28;20078;-69
2022/08/07 01:09:23;;;;;;;;;;;12.60;99.90;;;;;;5040220;28;20037;-69
2022/08/07 01:11:51;;;;;;;7.93;5.05;;;12.60;99.90;;;;;;5042227;28;19920;-68
2022/08/07 01:14:21;;;;;;;7.15;5.20;;;12.60;99.90;;;;;;5038769;28;20127;-68
2022/08/07 01:16:47;;;;;;;7.47;5.50;;;12.60;99.90;;;;;;5038722;28;20116;-69
2022/08/07 01:19:14;;;;;;;7.32;5.30;;;12.60;99.90;;;;;;5041064;28;20036;-68
2022/08/07 01:21:41;;;;;;;7.38;5.63;;;12.50;99.90;;;;;;5034827;28;20038;-68
2022/08/07 01:24:08;;;;;;;7.25;5.15;;;12.50;99.90;;;;;;5041675;28;20072;-69
2022/08/07 01:26:34;;;;;;;6.70;5.22;;;12.50;99.90;;;;;;5040120;28;20473;-68
2022/08/07 01:29:00;;;;;;;8.15;5.60;;;12.50;99.90;;;;;;5041751;28;20073;-69
2022/08/07 01:31:31;;;;;;;;;;;12.50;99.90;;;;;;5038077;28;20084;-68
2022/08/07 01:33:58;;;;;;;7.18;5.13;;;12.50;99.90;;;;;;5039981;28;19921;-69
2022/08/07 01:36:25;;;;;;;8.18;5.22;;;12.50;99.90;;;;;;5040272;28;20033;-68
2022/08/07 01:38:50;;;;;;;7.38;5.50;;;12.40;99.90;;;;;;5039964;28;20041;-68
2022/08/07 01:41:17;;;;;;;;;;;12.40;99.90;;;;;;5042735;28;20404;-68
2022/08/07 01:43:43;;;;;;;6.88;5.32;;;12.40;99.90;;;;;;5039049;28;19960;-68
2022/08/07 01:46:08;;;;;;;;;;;12.30;99.90;;;;;;5038963;28;20126;-68
2022/08/07 01:48:36;;;;;;;8.48;5.07;;;12.40;99.90;;;;;;5042069;28;20469;-69
2022/08/07 01:51:05;;;;;;;7.13;5.30;;;12.30;99.90;;;;;;5038438;28;20343;-69
2022/08/07 01:53:35;;;;;;;7.53;5.07;;;12.30;99.90;;;;;;5042003;28;20073;-69
2022/08/07 01:56:06;;;;;;;7.55;5.55;;;12.30;99.90;;;;;;5039262;28;20038;-68
2022/08/07 01:58:40;;;;;;;7.15;5.20;;;12.40;99.90;;;;;;5041358;28;20472;-69
2022/08/07 02:01:17;;;;;;;7.18;4.95;;;12.30;99.90;;;;;;5036115;28;20385;-69
2022/08/07 02:03:55;;;;;;;6.45;4.68;;;12.30;99.90;;;;;;5040948;28;20038;-69
2022/08/07 02:06:24;;;;;;;7.38;5.00;;;12.20;99.90;;;;;;5043709;28;20045;-69
2022/08/07 02:08:51;;;;;;;7.80;4.82;;;12.20;99.90;;;;;;5044649;28;20129;-68
2022/08/07 02:11:16;;;;;;;7.47;4.53;;;12.20;99.90;;;;;;5043953;28;20051;-68
2022/08/07 02:13:43;;;;;;;;;;;12.20;99.90;;;;;;5043712;28;20685;-69
2022/08/07 02:16:10;;;;;;;7.82;5.20;;;12.20;99.90;;;;;;5041563;28;19975;-69
2022/08/07 02:18:37;;;;;;;7.15;5.20;;;12.20;99.90;;;;;;5045126;28;20060;-69
2022/08/07 02:21:06;;;;;;;7.45;4.95;;;12.20;99.90;;;;;;5041584;28;20067;-69
2022/08/07 02:23:35;;;;;;;5.93;4.30;;;12.20;99.90;;;;;;5039337;28;20091;-69
2022/08/07 02:26:04;;;;;;;8.63;5.05;;;12.20;99.90;;;;;;5037222;28;20045;-68
2022/08/07 02:28:32;;;;;;;7.57;5.35;;;12.20;99.90;;;;;;5037105;28;20125;-69
2022/08/07 02:31:00;;;;;;;8.90;5.50;;;12.20;99.90;;;;;;5039806;28;20081;-68
2022/08/07 02:33:30;;;;;;;7.82;5.35;;;12.20;99.90;;;;;;5044740;28;20095;-69
2022/08/07 02:35:57;;;;;;;7.13;4.75;;;12.10;99.90;;;;;;5041199;28;20081;-69
2022/08/07 02:38:27;;;;;;;7.25;5.43;;;12.10;99.90;;;;;;5046144;28;20044;-69
2022/08/07 02:40:55;;;;;;;7.38;4.95;;;12.10;99.90;;;;;;5042511;28;20037;-68
2022/08/07 02:43:21;;;;;;;6.53;5.00;;;12.10;99.90;;;;;;5043288;28;20040;-69
2022/08/07 02:45:50;;;;;;;8.63;4.90;;;12.00;99.90;;;;;;5041334;28;20040;-68
2022/08/07 02:48:15;;;;;;;7.93;5.30;;;12.00;99.90;;;;;;5042251;28;20085;-69
2022/08/07 02:50:42;;;;;;;;;;;12.00;99.90;;;;;;5044520;28;20069;-68
2022/08/07 02:53:17;;;;;;;7.75;5.10;;;12.00;99.90;;;;;;5042512;28;19933;-69
2022/08/07 02:55:48;;;;;;;7.10;5.20;;;12.00;99.90;;;;;;5041200;28;20546;-69
2022/08/07 02:58:18;;;;;;;6.55;4.95;;;12.00;99.90;;;;;;5040790;28;20132;-69
2022/08/07 03:00:47;;;;;;;7.20;5.35;;;12.00;99.90;;;;;;5042735;28;20103;-69
2022/08/07 03:03:15;;;;;;;8.55;5.32;;;12.00;99.90;;;;;;5041057;28;20053;-69
2022/08/07 03:05:41;;;;;;;7.95;5.40;;;12.00;99.90;;;;;;5042502;28;20050;-69
2022/08/07 03:08:07;;;;;;;;;;;12.00;99.90;;;;;;5043123;28;20140;-69
2022/08/07 03:10:33;;;;;;;7.03;4.65;;;12.00;99.90;;;;;;5042127;28;19975;-69
2022/08/07 03:13:00;;;;;;;7.80;4.97;;;12.00;99.90;;;;;;5040830;28;20050;-69
2022/08/07 03:15:27;;;;;;;7.78;5.97;;;12.00;99.90;;;;;;5040664;28;20037;-70
2022/08/07 03:17:53;;;;;;;9.48;5.82;;;12.00;99.90;;;;;;5042705;28;20037;-69
2022/08/07 03:20:19;;;;;;;;;;;12.00;99.90;;;;;;5042446;28;20091;-69
2022/08/07 03:22:46;;;;;;;9.13;6.22;;;12.00;99.90;;;;;;5043537;28;20007;-69
2022/08/07 03:25:12;;;;;;;7.07;5.22;;;12.00;99.90;;;;;;5041511;28;20060;-69
2022/08/07 03:27:39;;;;;;;;;;;12.00;99.90;;;;;;5041835;28;20397;-69
2022/08/07 03:30:06;;;;;;;8.18;5.85;;;11.90;99.90;;;;;;5042915;28;20395;-69
2022/08/07 03:32:40;;;;;;;8.05;5.63;;;11.90;99.90;;;;;;5042887;28;20079;-68
2022/08/07 03:35:12;;;;;;;11.32;6.00;;;12.10;99.90;;;;;;5041961;28;20139;-69
2022/08/07 03:37:39;;;;;;;9.57;5.57;;;12.00;99.90;;;;;;5037491;28;20042;-69
2022/08/07 03:40:07;;;;;;;8.20;5.47;;;11.90;99.90;;;;;;5043069;28;20049;-69
2022/08/07 03:42:35;;;;;;;7.60;5.60;;;11.90;99.90;;;;;;5041903;28;20048;-69
2022/08/07 03:45:01;;;;;;;7.82;5.85;;;12.00;99.90;;;;;;5041872;28;20045;-69
2022/08/07 03:47:27;;;;;;;7.30;5.18;;;11.90;99.90;;;;;;5038867;28;20500;-69
2022/08/07 03:49:54;;;;;;;8.82;5.65;;;12.00;99.90;;;;;;5043666;28;20485;-69
2022/08/07 03:52:24;;;;;;;9.90;5.68;;;12.00;99.90;;;;;;5040713;28;20037;-69
2022/08/07 03:54:50;;;;;;;9.57;5.93;;;11.90;99.90;;;;;;5040341;28;20045;-69
2022/08/07 03:57:16;;;;;;;;;;;11.90;99.90;;;;;;5043517;28;20071;-69
2022/08/07 03:59:43;;;;;;;8.77;5.65;;;11.90;99.90;;;;;;5040203;28;19972;-69
2022/08/07 04:02:08;;;;;;;8.48;5.65;;;11.90;99.90;;;;;;5042552;28;20044;-69
2022/08/07 04:04:34;;;;;;;;;;;11.90;99.90;;;;;;5042413;28;20033;-69
2022/08/07 04:07:00;;;;;;;6.63;5.18;;;11.90;99.90;;;;;;5041556;28;20008;-69
2022/08/07 04:09:27;;;;;;;8.18;5.85;;;11.80;99.90;;;;;;5041643;28;20098;-69
2022/08/07 04:11:54;;;;;;;8.05;5.82;;;11.80;99.90;;;;;;5040370;28;20084;-69
2022/08/07 04:14:20;;;;;;;7.70;5.50;;;11.80;99.90;;;;;;5038480;28;20416;-69
2022/08/07 04:16:47;;;;;;;7.28;5.60;;;11.80;99.90;;;;;;5040822;28;20095;-68
2022/08/07 04:19:13;;;;;;;9.02;5.82;;;11.80;99.90;;;;;;5042793;28;20041;-69
2022/08/07 04:21:39;;;;;;;8.35;5.63;;;11.80;99.90;;;;;;5039010;28;20091;-69
2022/08/07 04:24:09;;;;;;;;;;;11.90;99.90;;;;;;5043500;28;20053;-69
2022/08/07 04:26:37;;;;;;;6.82;4.70;;;11.90;99.90;;;;;;5039537;28;20365;-69
2022/08/07 04:29:06;;;;;;;7.60;5.35;;;11.90;99.90;;;;;;5038058;28;20033;-69
2022/08/07 04:31:32;;;;;;;7.68;5.60;;;11.90;99.90;;;;;;5043261;28;20048;-69
2022/08/07 04:33:58;;;;;;;;;;;11.90;99.90;;;;;;5041027;28;20047;-69
2022/08/07 04:36:23;;;;;;;8.65;5.38;;;11.90;99.90;;;;;;5041826;28;19928;-69
2022/08/07 04:38:49;;;;;;;;;;;11.90;99.90;;;;;;5042058;28;20492;-69
2022/08/07 04:41:15;;;;;;;9.90;5.57;;;11.90;99.90;;;;;;5038921;28;19983;-69
2022/08/07 04:43:43;;;;;;;8.02;5.85;;;11.90;99.90;;;;;;5039290;28;20037;-69
2022/08/07 04:46:27;;;;;;;9.80;6.18;;;12.00;99.90;;;;;;5042135;28;20071;-69
2022/08/07 04:49:13;;;;;;;10.00;5.60;;;12.00;99.90;;;;;;5039970;28;20473;-69
2022/08/07 04:52:06;;;;;;;9.43;6.43;;;12.10;99.90;;;;;;5036962;28;20046;-69
2022/08/07 04:54:47;;;;;;;8.40;6.15;;;12.10;99.90;;;;;;5038859;28;20328;-69
2022/08/07 04:57:12;;;;;;;8.30;5.72;;;12.10;99.90;;;;;;5034920;28;20439;-69
2022/08/07 04:59:54;;;;;;;;;;;12.10;99.90;;;;;;5042451;28;20045;-69
2022/08/07 05:02:38;;;;;;;8.80;6.03;;;12.20;99.90;;;;;;5040958;28;19944;-70
2022/08/07 05:05:33;;;;;;;12.73;6.30;;;12.30;99.90;;;;;;5034766;28;20119;-69
2022/08/07 05:08:32;;;;;;;10.38;6.13;;;12.30;99.90;;;;;;5041241;28;20057;-69
2022/08/07 05:11:08;;;;;;;10.55;6.93;;;12.40;99.90;;;;;;5041795;28;20400;-69
2022/08/07 05:13:56;;;;;;;10.23;6.13;;;12.40;99.90;;;;;;5035079;28;20041;-69
2022/08/07 05:16:23;;;;;;;9.18;6.75;;;12.50;99.90;;;;;;5038980;28;20045;-69
2022/08/07 05:19:00;;;;;;;10.40;6.85;;;12.50;99.90;;;;;;5041337;28;20110;-69
2022/08/07 05:21:28;;;;;;;11.82;7.00;;;12.50;99.90;;;;;;5041668;28;20136;-69
2022/08/07 05:23:57;;;;;;;9.68;6.50;;;12.70;99.90;;;;;;5037909;28;20041;-68
2022/08/07 05:26:25;;;;;;;10.13;6.90;;;12.80;99.90;;;;;;5038654;28;20057;-69
2022/08/07 05:28:53;;;;;;;10.27;7.22;;;12.80;99.90;;;;;;5041364;28;20044;-69
2022/08/07 05:31:22;;;;;;;10.68;6.40;;;12.80;99.90;;;;;;5038440;28;20052;-69
2022/08/07 05:33:50;;;;;;;9.20;6.57;;;12.80;99.90;;;;;;5043891;28;20486;-69
2022/08/07 05:36:17;;;;;;;9.70;6.40;;;12.80;99.90;;;;;;5043586;28;20056;-69
2022/08/07 05:38:46;;;;;;;9.13;6.55;;;12.90;99.90;;;;;;5045442;28;20041;-69
2022/08/07 05:41:12;;;;;;;9.32;6.50;;;12.90;99.90;;;;;;5045103;28;20059;-69
2022/08/07 05:43:38;;;;;;;;;;;13.00;99.90;;;;;;5046579;28;20029;-69
2022/08/07 05:46:04;;;;;;;8.63;5.88;;;13.10;99.90;;;;;;5041631;28;19992;-69
2022/08/07 05:48:30;;;;;;;9.40;5.97;;;13.00;99.90;;;;;;5046760;28;20424;-69
2022/08/07 05:50:58;;;;;;;;;;;13.10;99.90;;;;;;5042285;28;20045;-69
2022/08/07 05:53:23;;;;;;;8.90;5.78;;;13.20;99.90;;;;;;5037159;28;19928;-69
2022/08/07 05:55:49;;;;;;;;;;;13.20;99.90;;;;;;5042351;28;20041;-69
2022/08/07 05:58:17;;;;;;;8.32;5.43;;;13.50;99.90;;;;;;5040797;28;20407;-69
2022/08/07 06:00:45;;;;;;;10.55;6.30;;;13.40;99.90;;;;;;5045485;28;20039;-69
2022/08/07 06:03:12;;;;;;;8.88;6.30;;;13.40;99.90;;;;;;5042823;28;20477;-69
2022/08/07 06:05:40;;;;;;;14.23;7.10;;;13.50;99.90;;;;;;5042879;28;20049;-69
2022/08/07 06:08:07;;;;;;;10.57;6.53;;;13.70;99.90;;;;;;5044216;28;20512;-69
2022/08/07 06:10:33;;;;;;;9.30;6.45;;;13.80;99.90;;;;;;5042669;28;20046;-68
2022/08/07 06:13:00;;;;;;;9.20;6.47;;;13.80;99.90;;;;;;5042389;28;20405;-69
2022/08/07 06:15:27;;;;;;;10.10;6.97;;;13.80;99.90;;;;;;5046432;28;20049;-69
2022/08/07 06:17:54;;;;;;;11.02;6.13;;;13.90;99.90;;;;;;5041236;28;20090;-69
2022/08/07 06:20:22;;;;;;;9.82;6.43;;;14.00;99.90;;;;;;5036793;28;20092;-69
2022/08/07 06:22:49;;;;;;;10.98;6.90;;;14.10;99.90;;;;;;5046174;28;20041;-69
2022/08/07 06:25:15;;;;;;;10.57;6.97;;;14.10;99.90;;;;;;5042585;28;20084;-69
2022/08/07 06:27:40;;;;;;;;;;;14.20;99.90;;;;;;5043377;28;20139;-69
2022/08/07 06:30:06;;;;;;;8.68;6.05;;;14.30;99.90;;;;;;5043893;28;19920;-70
2022/08/07 06:32:32;;;;;;;10.27;5.75;;;14.40;99.90;;;;;;5043908;28;20042;-69
2022/08/07 06:35:00;;;;;;;;;;;14.40;99.90;;;;;;5044173;28;20044;-70
2022/08/07 06:37:26;;;;;;;9.82;6.00;;;14.50;99.90;;;;;;5043046;28;20600;-69
2022/08/07 06:39:52;;;;;;;;;;;14.60;99.90;;;;;;5041766;28;20033;-69
2022/08/07 06:42:28;;;;;;;9.75;5.97;;;14.70;99.90;;;;;;5041632;28;19921;-70
2022/08/07 06:44:56;;;;;;;8.65;6.25;;;14.80;99.90;;;;;;5040743;28;20032;-69
2022/08/07 06:47:22;;;;;;;8.13;5.70;;;15.00;99.90;;;;;;5041555;28;20052;-69
2022/08/07 06:49:48;;;;;;;9.40;6.35;;;15.10;99.90;;;;;;5043903;28;20123;-69
2022/08/07 06:52:15;;;;;;;10.70;6.55;;;15.20;99.90;;;;;;5040846;28;20148;-69
2022/08/07 06:54:43;;;;;;;8.82;6.00;;;15.30;99.90;;;;;;5044594;28;20044;-69
2022/08/07 06:57:12;;;;;;;9.13;5.80;;;15.50;99.90;;;;;;5040621;28;20041;-70
2022/08/07 06:59:44;;;;;;;7.55;5.22;;;15.60;99.90;;;;;;5045287;28;20119;-70
2022/08/07 07:02:19;;;;;;;7.75;5.28;;;15.70;99.90;;;;;;5041157;28;20045;-69
2022/08/07 07:04:44;;;;;;;8.70;5.22;;;15.80;99.90;;;;;;5037146;28;20037;-69
2022/08/07 07:07:10;;;;;;;7.88;5.57;;;15.80;99.90;;;;;;5043729;28;20071;-70
2022/08/07 07:09:37;;;;;;;8.55;4.93;;;15.90;99.90;;;;;;5040607;28;20041;-69
2022/08/07 07:12:05;;;;;;;8.50;5.00;;;16.00;99.90;;;;;;5044101;28;20042;-70
2022/08/07 07:14:39;;;;;;;7.28;5.05;;;16.10;99.90;;;;;;5041340;28;20107;-70
2022/08/07 07:17:11;;;;;;;7.75;4.80;;;16.30;99.90;;;;;;5042496;28;20045;-70
2022/08/07 07:19:42;;;;;;;7.28;4.22;;;16.50;99.90;;;;;;5040864;28;20057;-70
2022/08/07 07:22:09;;;;;;;7.50;4.15;;;16.70;99.90;;;;;;5043575;28;20049;-71
2022/08/07 07:24:37;;;;;;;6.03;3.90;;;16.70;99.90;;;;;;5040617;28;20076;-70
2022/08/07 07:27:05;;;;;;;6.88;4.18;;;16.80;99.90;;;;;;5041746;28;20445;-70
2022/08/07 07:29:35;;;;;;;5.50;3.67;;;16.90;99.90;;;;;;5041411;28;20107;-70
2022/08/07 07:32:05;;;;;;;5.72;3.53;;;17.00;99.90;;;;;;5042331;28;20053;-71
2022/08/07 07:34:32;;;;;;;5.93;3.30;;;17.10;99.90;;;;;;5042421;28;20048;-70
2022/08/07 07:37:01;;;;;;;5.65;3.28;;;17.30;99.90;;;;;;5041049;28;20042;-70
2022/08/07 07:39:30;;;;;;;6.90;3.40;;;17.60;99.90;;;;;;5042772;28;20041;-70
2022/08/07 07:41:59;;;;;;;6.25;4.13;;;18.50;99.90;;;;;;5039312;28;20508;-70
2022/08/07 07:44:27;;;;;;;7.03;3.47;;;19.50;99.90;;;;;;5041193;28;20034;-71
2022/08/07 07:46:55;;;;;;;7.35;3.72;;;20.40;99.90;;;;;;5040983;28;20037;-70
2022/08/07 07:49:23;;;;;;;5.68;3.58;;;21.30;99.90;;;;;;5043082;28;20088;-70
2022/08/07 07:51:54;;;;;;;4.72;3.05;;;22.20;98.70;;;;;;5042247;28;20037;-71
2022/08/07 07:54:21;;;;;;;7.20;3.30;;;22.70;97.40;;;;;;5042582;28;20556;-71
2022/08/07 07:56:49;;;;;;;5.18;3.20;;;23.30;96.50;;;;;;5037758;28;20034;-70
2022/08/07 07:59:17;;;;;;;5.65;3.47;;;23.80;95.40;;;;;;5041583;28;20053;-71
2022/08/07 08:01:45;;;;;;;6.15;2.72;;;24.30;95.10;;;;;;5042460;28;20041;-71
2022/08/07 08:04:12;;;;;;;4.88;2.70;;;24.60;94.10;;;;;;5041466;28;20099;-71
2022/08/07 08:06:43;;;;;;;5.07;2.65;;;25.30;94.00;;;;;;5039272;28;20084;-71
2022/08/07 08:09:10;;;;;;;5.75;2.70;;;26.00;91.10;;;;;;5041116;28;20053;-71
2022/08/07 08:11:36;;;;;;;4.90;2.42;;;26.50;91.10;;;;;;5042863;28;20120;-71
2022/08/07 08:14:03;;;;;;;4.57;2.92;;;26.90;90.40;;;;;;5038181;28;20077;-71
2022/08/07 08:16:42;;;;;;;4.25;2.47;;;26.90;90.90;;;;;;5044058;28;20126;-71
2022/08/07 08:19:12;;;;;;;5.18;2.88;;;27.30;91.00;;;;;;5036236;28;20045;-71
2022/08/07 08:27:14;;;;;;;4.82;2.88;;;27.70;89.30;;;;;;5037675;28;20053;-69
2022/08/07 08:29:49;;;;;;;6.18;2.60;;;26.90;89.60;;;;;;5042543;28;20476;-68
2022/08/07 08:32:19;;;;;;;4.33;2.30;;;27.10;89.20;;;;;;5042600;28;20071;-69
2022/08/07 08:34:47;;;;;;;4.82;2.53;;;27.70;86.40;;;;;;5040998;28;20049;-69
2022/08/07 08:37:14;;;;;;;4.50;2.60;;;28.00;86.40;;;;;;5039700;28;20037;-69
2022/08/07 08:39:43;;;;;;;4.63;2.17;;;28.00;87.40;;;;;;5040126;28;20132;-69
2022/08/07 08:42:35;;;;;;;3.92;2.33;;;28.50;87.30;;;;;;5041313;28;20404;-69
2022/08/07 08:45:35;;;;;;;4.10;2.50;;;29.10;85.40;;;;;;5035885;28;20053;-69
2022/08/07 08:48:29;;;;;;;4.63;2.40;;;29.60;83.50;;;;;;5036356;28;20072;-69
2022/08/07 08:51:03;;;;;;;4.05;2.00;;;29.70;81.50;;;;;;5034507;28;20030;-69
2022/08/07 08:53:37;;;;;;;3.60;2.10;;;29.60;80.70;;;;;;5036025;28;20052;-71
2022/08/07 08:56:10;;;;;;;4.32;2.30;;;29.40;81.50;;;;;;5041522;28;20060;-69
2022/08/07 08:58:56;;;;;;;3.33;2.10;;;29.30;82.90;;;;;;5040948;28;20045;-69
2022/08/07 09:01:48;;;;;;;4.55;2.58;;;29.40;81.50;;;;;;5038421;28;20415;-69
2022/08/07 09:04:48;;;;;;;4.03;2.38;;;29.10;81.60;;;;;;5039494;28;20095;-69
2022/08/07 09:07:39;;;;;;;4.78;2.30;;;28.80;82.30;;;;;;5037982;28;20056;-69
2022/08/07 09:10:20;;;;;;;4.50;2.10;;;28.80;83.60;;;;;;5036541;28;20045;-69
2022/08/07 09:13:05;;;;;;;3.72;2.13;;;29.40;81.60;;;;;;5040337;28;20041;-69
2022/08/07 09:15:56;;;;;;;4.10;2.05;;;29.90;79.30;;;;;;5036008;28;20045;-70
2022/08/07 09:19:02;;;;;;;4.85;1.92;;;30.30;80.50;;;;;;5038818;28;20489;-70
2022/08/07 09:21:37;;;;;;;4.38;1.83;;;30.60;79.60;;;;;;5033811;28;20401;-70
2022/08/07 09:24:40;;;;;;;4.63;1.90;;;31.00;79.20;;;;;;5038855;28;20122;-71
2022/08/07 09:27:24;;;;;;;3.72;1.73;;;30.80;77.40;;;;;;5041585;28;20052;-70
2022/08/07 09:30:08;;;;;;;4.07;2.00;;;30.50;80.20;;;;;;5034379;28;20045;-71
2022/08/07 09:32:55;;;;;;;3.60;1.98;;;30.40;79.00;;;;;;5040199;28;20048;-71
2022/08/07 09:35:42;;;;;;;2.78;1.77;;;31.00;79.60;;;;;;5036445;28;20132;-71
2022/08/07 09:38:16;;;;;;;4.68;1.90;;;31.20;77.70;;;;;;5040956;28;20159;-71
2022/08/07 09:41:03;;;;;;;2.88;1.65;;;31.50;79.50;;;;;;5039790;28;20485;-70
2022/08/07 09:43:47;;;;;;;4.00;1.73;;;31.40;76.70;;;;;;5036506;28;20493;-72
2022/08/07 09:46:44;;;;;;;3.13;1.70;;;29.90;78.10;;;;;;5037958;28;20042;-71
2022/08/07 09:49:56;;;;;;;3.90;1.90;;;29.60;79.20;;;;;;5040418;28;20059;-71
2022/08/07 09:52:35;;;;;;;3.65;1.75;;;30.10;78.00;;;;;;5035307;28;20034;-71
2022/08/07 09:55:28;;;;;;;4.13;2.00;;;30.50;77.80;;;;;;5038875;28;20045;-69
2022/08/07 09:58:15;;;;;;;4.90;1.73;;;30.40;78.20;;;;;;5037593;28;20397;-70
2022/08/07 10:00:57;;;;;;;4.38;1.63;;;29.40;78.80;;;;;;5039405;28;20050;-70
2022/08/07 10:03:55;;;;;;;3.47;1.70;;;28.00;79.80;;;;;;5037482;28;20045;-70
2022/08/07 10:06:46;;;;;;;3.40;1.60;;;27.80;81.20;;;;;;5036552;28;20063;-70
2022/08/07 10:09:50;;;;;;;3.70;1.63;;;28.40;81.60;;;;;;5034059;28;20033;-70
2022/08/07 10:12:30;;;;;;;3.33;1.60;;;29.70;80.30;;;;;;5008433;28;20479;-69
2022/08/07 10:15:08;;;;;;;3.55;1.23;;;29.90;77.60;;;;;;5037183;28;20567;-70
2022/08/07 10:18:09;;;;;;;3.70;1.63;;;30.50;79.10;;;;;;5038340;28;20044;-70
2022/08/07 10:20:52;;;;;;;3.28;1.63;;;30.70;77.30;;;;;;5035019;28;20405;-70
2022/08/07 10:23:35;;;;;;;3.47;1.50;;;30.60;75.90;;;;;;5039547;28;20077;-70
2022/08/07 10:26:12;;;;;;;3.00;1.45;;;30.80;76.50;;;;;;5041512;28;20088;-70
2022/08/07 10:29:16;;;;;;;3.45;1.35;;;30.90;75.20;;;;;;5037597;28;20124;-70
2022/08/07 10:31:59;;;;;;;3.72;1.27;;;31.10;75.80;;;;;;5028783;28;20120;-70
2022/08/07 10:34:55;;;;;;;2.60;1.30;;;31.40;74.60;;;;;;5038698;28;20060;-69
2022/08/07 10:37:37;;;;;;;3.45;1.30;;;31.10;72.00;;;;;;5040671;28;20037;-70
2022/08/07 10:40:24;;;;;;;3.65;1.10;;;31.00;74.50;;;;;;5040642;28;20358;-70
2022/08/07 10:43:27;;;;;;;3.55;1.15;;;30.90;73.00;;;;;;5041845;28;20049;-70
2022/08/07 10:46:12;;;;;;;3.33;1.40;;;31.20;72.20;;;;;;5041213;28;20060;-70
2022/08/07 10:48:40;;;;;;;2.33;1.15;;;30.80;73.50;;;;;;5036750;28;20556;-70
2022/08/07 10:51:18;;;;;;;2.70;1.33;;;30.80;73.50;;;;;;5036795;28;20041;-70
2022/08/07 10:53:54;;;;;;;3.08;1.23;;;30.90;74.70;;;;;;5040070;28;20041;-69
2022/08/07 10:56:44;;;;;;;2.67;1.30;;;30.80;72.50;;;;;;5043518;28;20591;-70
2022/08/07 10:59:39;;;;;;;2.75;1.58;;;30.80;74.80;;;;;;5037856;28;20057;-70
2022/08/07 11:02:17;;;;;;;3.70;1.35;;;31.10;74.30;;;;;;5037723;28;20041;-70
2022/08/07 11:05:31;;;;;;;2.90;1.40;;;31.00;74.10;;;;;;5038048;28;20401;-69
2022/08/07 11:08:23;;;;;;;3.22;1.52;;;31.50;71.60;;;;;;5045859;28;20442;-70
2022/08/07 11:11:00;;;;;;;2.90;1.45;;;31.20;73.90;;;;;;5033590;28;20409;-70
2022/08/07 11:13:46;;;;;;;3.67;1.73;;;31.30;70.30;;;;;;5041315;28;20320;-69
2022/08/07 11:16:21;;;;;;;3.25;1.63;;;31.20;73.70;;;;;;5039171;28;20072;-70
2022/08/07 11:19:14;;;;;;;3.23;1.60;;;31.20;74.00;;;;;;5043755;28;20044;-69
2022/08/07 11:21:55;;;;;;;3.08;1.30;;;31.00;73.40;;;;;;5036392;28;20056;-70
2022/08/07 11:24:27;;;;;;;3.20;1.60;;;31.30;74.50;;;;;;5040661;28;20057;-69
2022/08/07 11:27:20;;;;;;;4.32;1.58;;;31.40;72.80;;;;;;5043827;28;20048;-70
2022/08/07 11:29:57;;;;;;;5.50;1.60;;;31.40;74.80;;;;;;5041170;28;20523;-70
2022/08/07 11:32:35;;;;;;;3.50;1.50;;;31.00;74.20;;;;;;5042054;28;20042;-69
2022/08/07 11:35:07;;;;;;;3.03;1.20;;;31.00;71.70;;;;;;5035917;28;20038;-69
2022/08/07 11:37:51;;;;;;;3.22;1.30;;;31.00;70.90;;;;;;5036695;28;20046;-69
2022/08/07 11:40:42;;;;;;;2.25;1.20;;;31.00;70.70;;;;;;5041289;28;20493;-69
2022/08/07 11:43:40;;;;;;;3.30;1.35;;;30.50;71.00;;;;;;5038672;28;20568;-69
2022/08/07 11:46:21;;;;;;;3.22;1.38;;;29.70;72.80;;;;;;5037794;28;20045;-69
2022/08/07 11:49:05;;;;;;;3.25;1.50;;;29.40;74.10;;;;;;5042472;28;20076;-69
2022/08/07 11:51:47;;;;;;;3.15;1.73;;;29.90;72.10;;;;;;5036290;28;20073;-69
2022/08/07 11:54:44;;;;;;;3.15;1.75;;;30.20;73.50;;;;;;5040749;28;20485;-69
2022/08/07 11:57:36;;;;;;;4.03;1.60;;;29.60;75.40;;;;;;5038086;28;20068;-69
2022/08/07 12:00:10;;;;;;;2.90;1.60;;;30.00;71.30;;;;;;5038625;28;20037;-69
2022/08/07 12:02:57;;;;;;;3.63;2.03;;;29.60;72.20;;;;;;5043305;28;20045;-69
2022/08/07 12:05:41;;;;;;;2.67;1.70;;;29.10;74.30;;;;;;5036232;28;20098;-69
2022/08/07 12:08:22;;;;;;;2.67;1.50;;;28.70;74.10;;;;;;5039742;28;20493;-69
2022/08/07 12:11:15;;;;;;;4.28;1.83;;;28.80;73.00;;;;;;5040303;28;20049;-68
2022/08/07 12:13:49;;;;;;;2.70;1.50;;;28.60;76.50;;;;;;5041586;28;20045;-68
2022/08/07 12:16:20;;;;;;;4.25;1.67;;;28.30;74.90;;;;;;5039548;28;20099;-69
2022/08/07 12:19:18;;;;;;;3.75;1.70;;;28.70;76.80;;;;;;5041950;28;20037;-69
2022/08/07 12:21:52;;;;;;;4.55;1.98;;;29.40;75.20;;;;;;5028013;28;20072;-69
2022/08/07 12:24:29;;;;;;;4.32;1.90;;;28.70;77.30;;;;;;5040838;28;20041;-68
2022/08/07 12:27:10;;;;;;;4.50;2.05;;;28.90;77.80;;;;;;5036218;28;20383;-68
2022/08/07 12:29:52;;;;;;;3.78;2.00;;;28.70;75.60;;;;;;5042392;28;20083;-69
2022/08/07 12:32:35;;;;;;;3.60;1.88;;;28.60;75.50;;;;;;5034269;28;20120;-69
2022/08/07 12:35:09;;;;;;;4.10;2.00;;;27.90;76.40;;;;;;5036173;28;20477;-69
2022/08/07 12:37:36;;;;;;;2.88;1.80;;;27.60;79.60;;;;;;5042277;28;20040;-69
2022/08/07 12:40:04;;;;;;;3.83;2.17;;;27.40;79.10;;;;;;5039738;28;20456;-69
2022/08/07 12:42:33;;;;;;;4.07;1.90;;;26.70;79.00;;;;;;5040111;28;20480;-69
2022/08/07 12:45:10;;;;;;;3.42;1.80;;;27.00;79.20;;;;;;5040519;28;20045;-69
2022/08/07 12:47:50;;;;;;;3.38;1.88;;;27.60;79.40;;;;;;5041988;28;20417;-69
2022/08/07 12:50:53;;;;;;;2.95;1.65;;;27.30;79.20;;;;;;5034639;28;20041;-69
2022/08/07 12:53:49;;;;;;;5.88;2.10;;;27.10;78.60;;;;;;5039021;28;20060;-69
2022/08/07 12:56:43;;;;;;;2.83;1.77;;;26.70;79.10;;;;;;5034629;28;20068;-69
2022/08/07 12:59:14;;;;;;;3.05;1.88;;;27.10;79.90;;;;;;5040543;28;20040;-69
2022/08/07 13:02:05;;;;;;;3.03;1.80;;;27.30;80.10;;;;;;5037912;28;20041;-69
2022/08/07 13:04:56;;;;;;;5.65;2.70;;;27.50;77.00;;;;;;5039370;28;20041;-69
2022/08/07 13:07:39;;;;;;;4.45;2.20;;;27.20;80.70;;;;;;5036654;28;20124;-69
2022/08/07 13:10:42;;;;;;;3.70;2.20;;;27.30;81.50;;;;;;5040168;28;20047;-70
2022/08/07 13:13:14;;;;;;;4.65;2.47;;;27.30;78.90;;;;;;5042032;28;20393;-69
2022/08/07 13:15:59;;;;;;;4.40;2.13;;;27.00;79.20;;;;;;5037755;28;20049;-69
2022/08/07 13:18:55;;;;;;;3.42;2.03;;;27.10;78.50;;;;;;5035988;28;20045;-69
2022/08/07 13:21:46;;;;;;;5.53;2.65;;;27.30;78.80;;;;;;5036238;28;20047;-69
2022/08/07 13:24:54;;;;;;;4.45;2.40;;;27.50;79.00;;;;;;5024271;28;20046;-69
2022/08/07 13:27:30;;;;;;;7.22;2.33;;;27.50;76.90;;;;;;5043210;28;20060;-69
2022/08/07 13:30:08;;;;;;;5.10;2.10;;;27.60;76.50;;;;;;5040163;28;20070;-69
2022/08/07 13:32:47;;;;;;;6.18;2.72;;;27.50;78.70;;;;;;5040014;28;20117;-69
2022/08/07 13:35:30;;;;;;;5.28;2.38;;;27.50;78.10;;;;;;5033752;28;20049;-69